createdAt,value
2023-04-24T00:02:20.452Z,99737.69
2023-04-24T00:04:47.320Z,99741.89
2023-04-24T00:07:14.086Z,99739.54
2023-04-24T00:09:41.072Z,99743.75
2023-04-24T00:12:08.020Z,99742.00
2023-04-24T00:14:35.988Z,99741.13
2023-04-24T00:17:03.628Z,99741.05
2023-04-24T00:19:30.373Z,99742.93
2023-04-24T00:21:57.023Z,99741.13
2023-04-24T00:24:23.599Z,99739.77
2023-04-24T00:26:50.290Z,99737.61
2023-04-24T00:29:16.853Z,99735.19
2023-04-24T00:31:43.455Z,99737.52
2023-04-24T00:34:11.616Z,99737.67
2023-04-24T00:36:38.273Z,99737.55
2023-04-24T00:39:04.923Z,99737.52
2023-04-24T00:41:31.580Z,99734.02
2023-04-24T00:43:58.176Z,99737.15
2023-04-24T00:46:24.913Z,99734.20
2023-04-24T00:48:51.566Z,99735.04
2023-04-24T00:51:18.147Z,99733.64
2023-04-24T00:53:44.746Z,99734.56
2023-04-24T00:56:12.092Z,99736.09
2023-04-24T00:58:38.740Z,99731.98
2023-04-24T01:01:08.136Z,99732.23
2023-04-24T01:03:35.190Z,99728.59
2023-04-24T01:06:01.883Z,99730.59
2023-04-24T01:08:29.302Z,99727.79
2023-04-24T01:10:56.976Z,99725.23
2023-04-24T01:13:24.021Z,99724.74
2023-04-24T01:15:50.774Z,99723.89
2023-04-24T01:18:17.460Z,99721.27
2023-04-24T01:20:45.360Z,99723.45
2023-04-24T01:23:12.071Z,99716.30
2023-04-24T01:25:38.653Z,99719.98
2023-04-24T01:28:05.245Z,99720.20
2023-04-24T01:30:32.167Z,99719.55
2023-04-24T01:32:58.743Z,99720.99
2023-04-24T01:35:26.003Z,99716.67
2023-04-24T01:37:52.608Z,99713.52
2023-04-24T01:40:19.159Z,99713.41
2023-04-24T01:42:46.045Z,99708.84
2023-04-24T01:45:13.229Z,99709.53
2023-04-24T01:47:40.330Z,99707.85
2023-04-24T01:50:07.389Z,99708.60
2023-04-24T01:52:34.482Z,99705.67
2023-04-24T01:55:01.447Z,99705.88
2023-04-24T01:57:28.324Z,99700.80
2023-04-24T01:59:54.957Z,99701.52
2023-04-24T02:02:22.447Z,99701.52
2023-04-24T02:04:49.178Z,99695.70
2023-04-24T02:07:15.758Z,99695.34
2023-04-24T02:09:42.609Z,99693.28
2023-04-24T02:12:09.442Z,99690.02
2023-04-24T02:14:36.055Z,99690.18
2023-04-24T02:17:03.717Z,99689.80
2023-04-24T02:19:30.287Z,99690.52
2023-04-24T02:21:56.826Z,99685.61
2023-04-24T02:24:23.421Z,99690.44
2023-04-24T02:26:50.114Z,99686.15
2023-04-24T02:29:16.964Z,99681.05
2023-04-24T02:31:43.584Z,99680.85
2023-04-24T02:34:10.518Z,99679.02
2023-04-24T02:36:37.351Z,99679.77
2023-04-24T02:39:04.680Z,99681.30
2023-04-24T02:41:33.819Z,99683.46
2023-04-24T02:44:00.782Z,99685.13
2023-04-24T02:46:27.397Z,99681.41
2023-04-24T02:48:54.198Z,99681.73
2023-04-24T02:51:20.894Z,99683.86
2023-04-24T02:53:47.488Z,99682.41
2023-04-24T02:56:14.127Z,99680.86
2023-04-24T02:58:40.982Z,99680.52
2023-04-24T03:01:07.744Z,99682.70
2023-04-24T03:03:34.566Z,99676.41
2023-04-24T03:06:01.252Z,99676.25
2023-04-24T03:08:27.818Z,99673.77
2023-04-24T03:10:54.361Z,99677.15
2023-04-24T03:13:20.916Z,99673.14
2023-04-24T03:15:48.162Z,99675.47
2023-04-24T03:18:14.834Z,99678.10
2023-04-24T03:20:41.572Z,99681.41
2023-04-24T03:23:08.174Z,99686.42
2023-04-24T03:25:35.188Z,99690.13
2023-04-24T03:28:02.156Z,99689.25
2023-04-24T03:30:51.249Z,99687.74
2023-04-24T03:33:18.137Z,99687.83
2023-04-24T03:35:53.949Z,99688.16
2023-04-24T03:38:20.693Z,99692.41
2023-04-24T03:41:02.062Z,99694.11
2023-04-24T03:43:50.062Z,99698.66
2023-04-24T03:46:16.699Z,99696.92
2023-04-24T03:48:48.165Z,99699.41
2023-04-24T03:51:16.622Z,99698.58
2023-04-24T03:53:45.265Z,99699.02
2023-04-24T03:56:12.612Z,99700.70
2023-04-24T03:58:40.838Z,99702.23
2023-04-24T04:01:08.621Z,99703.77
2023-04-24T04:03:48.248Z,99707.54
2023-04-24T04:06:17.195Z,99708.45
2023-04-24T04:08:43.723Z,99710.16
2023-04-24T04:11:10.476Z,99715.45
2023-04-24T04:13:37.032Z,99713.12
2023-04-24T04:16:03.876Z,99711.77
2023-04-24T04:18:30.612Z,99714.84
2023-04-24T04:20:58.030Z,99711.99
2023-04-24T04:23:24.932Z,99710.89
2023-04-24T04:26:14.984Z,99710.61
2023-04-24T04:28:52.724Z,99709.85
2023-04-24T04:31:20.817Z,99709.02
2023-04-24T04:33:48.269Z,99706.99
2023-04-24T04:36:14.950Z,99710.55
2023-04-24T04:38:46.123Z,99705.30
2023-04-24T04:41:26.435Z,99708.33
2023-04-24T04:43:53.935Z,99703.27
2023-04-24T04:46:21.707Z,99704.73
2023-04-24T04:49:17.967Z,99704.59
2023-04-24T04:51:46.222Z,99705.52
2023-04-24T04:54:12.940Z,99710.06
2023-04-24T04:56:39.599Z,99710.01
2023-04-24T04:59:07.454Z,99708.70
2023-04-24T05:01:35.999Z,99704.04
2023-04-24T05:04:02.938Z,99706.27
2023-04-24T05:06:29.788Z,99706.77
2023-04-24T05:08:58.388Z,99703.53
2023-04-24T05:11:45.497Z,99699.79
2023-04-24T05:14:13.574Z,99703.95
2023-04-24T05:16:41.535Z,99704.19
2023-04-24T05:19:09.376Z,99703.24
2023-04-24T05:21:41.241Z,99705.45
2023-04-24T05:24:08.393Z,99701.77
2023-04-24T05:26:54.100Z,99701.86
2023-04-24T05:29:24.854Z,99695.68
2023-04-24T05:31:51.418Z,99694.34
2023-04-24T05:34:18.653Z,99695.14
2023-04-24T05:36:47.480Z,99691.58
2023-04-24T05:39:14.973Z,99692.12
2023-04-24T05:41:41.693Z,99692.05
2023-04-24T05:44:08.476Z,99691.91
2023-04-24T05:46:35.128Z,99688.80
2023-04-24T05:49:01.806Z,99686.91
2023-04-24T05:51:28.549Z,99686.25
2023-04-24T05:53:55.850Z,99686.09
2023-04-24T05:56:22.621Z,99684.20
2023-04-24T05:58:49.558Z,99686.31
2023-04-24T06:01:16.832Z,99687.54
2023-04-24T06:03:45.863Z,99688.55
2023-04-24T06:06:12.804Z,99688.89
2023-04-24T06:08:39.707Z,99687.31
2023-04-24T06:11:06.408Z,99683.70
2023-04-24T06:13:33.072Z,99682.73
2023-04-24T06:16:18.188Z,99684.11
2023-04-24T06:18:49.834Z,99681.30
2023-04-24T06:21:17.253Z,99682.95
2023-04-24T06:23:45.065Z,99684.91
2023-04-24T06:26:11.614Z,99683.77
2023-04-24T06:28:38.820Z,99683.41
2023-04-24T06:31:05.369Z,99685.46
2023-04-24T06:33:32.998Z,99684.16
2023-04-24T06:35:59.730Z,99682.35
2023-04-24T06:38:26.549Z,99681.88
2023-04-24T06:40:53.207Z,99680.60
2023-04-24T06:43:20.257Z,99682.55
2023-04-24T06:45:48.075Z,99681.39
2023-04-24T06:48:14.680Z,99679.84
2023-04-24T06:50:41.253Z,99676.73
2023-04-24T06:53:07.893Z,99675.80
2023-04-24T06:55:34.873Z,99679.77
2023-04-24T06:58:01.614Z,99681.10
2023-04-24T07:00:28.503Z,99680.80
2023-04-24T07:02:55.430Z,99680.57
2023-04-24T07:05:22.179Z,99679.42
2023-04-24T07:07:50.103Z,99684.90
2023-04-24T07:10:16.721Z,99686.39
2023-04-24T07:12:43.273Z,99690.23
2023-04-24T07:15:10.108Z,99690.77
2023-04-24T07:17:37.069Z,99691.03
2023-04-24T07:20:04.131Z,99689.25
2023-04-24T07:22:30.901Z,99690.83
2023-04-24T07:24:57.556Z,99690.39
2023-04-24T07:27:24.114Z,99693.70
2023-04-24T07:29:51.043Z,99693.38
2023-04-24T07:32:17.604Z,99695.00
2023-04-24T07:34:44.397Z,99693.81
2023-04-24T07:37:11.317Z,99697.00
2023-04-24T07:39:38.099Z,99692.13
2023-04-24T07:42:05.372Z,99690.34
2023-04-24T07:44:32.922Z,99693.29
2023-04-24T07:46:59.463Z,99687.92
2023-04-24T07:49:26.126Z,99687.46
2023-04-24T07:51:52.738Z,99681.89
2023-04-24T07:54:19.321Z,99683.84
2023-04-24T07:56:46.322Z,99684.23
2023-04-24T07:59:12.895Z,99685.21
2023-04-24T08:01:39.582Z,99684.10
2023-04-24T08:04:07.245Z,99684.88
2023-04-24T08:06:34.303Z,99688.63
2023-04-24T08:09:01.370Z,99687.88
2023-04-24T08:11:27.939Z,99682.25
2023-04-24T08:13:56.015Z,99679.84
2023-04-24T08:16:24.769Z,99681.47
2023-04-24T08:18:51.582Z,99682.44
2023-04-24T08:21:19.664Z,99678.98
2023-04-24T08:23:46.694Z,99678.90
2023-04-24T08:26:13.698Z,99669.48
2023-04-24T08:28:40.231Z,99668.71
2023-04-24T08:31:07.055Z,99671.10
2023-04-24T08:33:36.011Z,99668.58
2023-04-24T08:36:03.384Z,99662.52
2023-04-24T08:38:30.224Z,99659.79
2023-04-24T08:40:57.627Z,99659.64
2023-04-24T08:43:24.290Z,99653.05
2023-04-24T08:45:50.976Z,99655.40
2023-04-24T08:48:29.777Z,99653.77
2023-04-24T08:50:58.388Z,99647.52
2023-04-24T08:53:25.837Z,99645.86
2023-04-24T08:55:52.833Z,99641.65
2023-04-24T08:58:19.763Z,99640.33
2023-04-24T09:00:48.168Z,99636.38
2023-04-24T09:03:15.820Z,99633.54
2023-04-24T09:05:46.714Z,99630.64
2023-04-24T09:08:17.217Z,99632.54
2023-04-24T09:10:44.411Z,99629.72
2023-04-24T09:13:11.492Z,99627.13
2023-04-24T09:15:41.942Z,99626.77
2023-04-24T09:18:08.637Z,99619.98
2023-04-24T09:20:37.262Z,99623.46
2023-04-24T09:23:03.906Z,99623.52
2023-04-24T09:25:34.624Z,99623.25
2023-04-24T09:28:01.889Z,99620.69
2023-04-24T09:30:28.503Z,99622.50
2023-04-24T09:33:10.791Z,99618.59
2023-04-24T09:35:37.411Z,99616.14
2023-04-24T09:38:03.972Z,99616.11
2023-04-24T09:40:30.623Z,99610.36
2023-04-24T09:43:02.262Z,99612.82
2023-04-24T09:45:29.511Z,99614.22
2023-04-24T09:47:56.772Z,99615.02
2023-04-24T09:50:23.420Z,99613.12
2023-04-24T09:52:59.850Z,99609.60
2023-04-24T09:55:26.464Z,99606.92
2023-04-24T09:57:54.164Z,99600.85
2023-04-24T10:00:28.071Z,99600.75
2023-04-24T10:02:58.472Z,99599.58
2023-04-24T10:05:26.370Z,99601.89
2023-04-24T10:07:53.036Z,99601.16
2023-04-24T10:10:19.863Z,99594.86
2023-04-24T10:12:46.637Z,99599.71
2023-04-24T10:15:14.191Z,99600.23
2023-04-24T10:17:40.965Z,99593.92
2023-04-24T10:20:08.034Z,99593.88
2023-04-24T10:22:34.583Z,99591.77
2023-04-24T10:25:01.336Z,99589.88
2023-04-24T10:27:28.063Z,99588.91
2023-04-24T10:29:54.646Z,99585.43
2023-04-24T10:32:21.764Z,99579.55
2023-04-24T10:34:48.697Z,99579.00
2023-04-24T10:37:15.441Z,99576.67
2023-04-24T10:39:42.114Z,99580.38
2023-04-24T10:42:16.318Z,99577.43
2023-04-24T10:44:43.142Z,99576.61
2023-04-24T10:47:16.206Z,99573.29
2023-04-24T10:49:42.762Z,99574.86
2023-04-24T10:52:09.745Z,99572.50
2023-04-24T10:54:37.286Z,99567.90
2023-04-24T10:57:19.639Z,99565.45
2023-04-24T10:59:46.414Z,99561.40
2023-04-24T11:02:15.374Z,99558.52
2023-04-24T11:04:42.436Z,99553.40
2023-04-24T11:07:09.252Z,99550.85
2023-04-24T11:09:37.414Z,99550.05
2023-04-24T11:12:08.688Z,99549.68
2023-04-24T11:14:54.346Z,99554.04
2023-04-24T11:17:34.612Z,99552.02
2023-04-24T11:20:25.097Z,99547.88
2023-04-24T11:22:53.767Z,99548.55
2023-04-24T11:25:20.568Z,99547.06
2023-04-24T11:27:48.042Z,99550.14
2023-04-24T11:30:17.733Z,99544.73
2023-04-24T11:32:44.299Z,99545.34
2023-04-24T11:35:11.110Z,99550.45
2023-04-24T11:37:38.402Z,99558.86
2023-04-24T11:40:08.731Z,99559.50
2023-04-24T11:42:36.057Z,99559.00
2023-04-24T11:45:03.663Z,99565.69
2023-04-24T11:47:31.485Z,99558.25
2023-04-24T11:49:58.895Z,99563.46
2023-04-24T11:52:25.770Z,99564.64
2023-04-24T11:54:52.549Z,99561.05
2023-04-24T11:57:23.197Z,99556.33
2023-04-24T11:59:50.041Z,99552.08
2023-04-24T12:02:23.981Z,99551.60
2023-04-24T12:04:51.320Z,99556.02
2023-04-24T12:07:18.151Z,99549.74
2023-04-24T12:09:46.254Z,99551.53
2023-04-24T12:12:14.809Z,99553.05
2023-04-24T12:14:45.341Z,99550.83
2023-04-24T12:17:11.930Z,99550.32
2023-04-24T12:19:38.563Z,99546.64
2023-04-24T12:22:06.654Z,99542.36
2023-04-24T12:24:33.336Z,99545.35
2023-04-24T12:26:59.898Z,99542.17
2023-04-24T12:29:27.031Z,99544.47
2023-04-24T12:31:53.627Z,99546.14
2023-04-24T12:34:21.549Z,99544.63
2023-04-24T12:36:48.647Z,99543.52
2023-04-24T12:39:16.511Z,99537.98
2023-04-24T12:41:57.709Z,99533.02
2023-04-24T12:44:35.521Z,99532.33
2023-04-24T12:47:02.478Z,99528.45
2023-04-24T12:49:31.390Z,99528.77
2023-04-24T12:51:57.966Z,99525.13
2023-04-24T12:54:24.550Z,99526.52
2023-04-24T12:56:51.457Z,99521.18
2023-04-24T12:59:18.003Z,99522.15
2023-04-24T13:01:44.744Z,99521.70
2023-04-24T13:04:11.727Z,99520.71
2023-04-24T13:06:38.392Z,99518.96
2023-04-24T13:09:04.951Z,99517.16
2023-04-24T13:11:31.513Z,99520.39
2023-04-24T13:13:58.323Z,99522.08
2023-04-24T13:16:24.973Z,99520.17
2023-04-24T13:18:51.716Z,99518.33
2023-04-24T13:21:18.341Z,99519.38
2023-04-24T13:23:45.136Z,99518.20
2023-04-24T13:26:11.907Z,99513.98
2023-04-24T13:28:39.316Z,99514.29
2023-04-24T13:31:06.114Z,99505.67
2023-04-24T13:33:32.686Z,99504.90
2023-04-24T13:35:59.236Z,99505.41
2023-04-24T13:38:25.956Z,99503.73
2023-04-24T13:40:52.496Z,99502.30
2023-04-24T13:43:19.098Z,99499.27
2023-04-24T13:45:45.633Z,99499.58
2023-04-24T13:48:12.353Z,99504.02
2023-04-24T13:50:39.134Z,99505.29
2023-04-24T13:53:05.682Z,99501.50
2023-04-24T13:55:32.224Z,99499.96
2023-04-24T13:57:58.809Z,99497.56
2023-04-24T14:00:25.487Z,99500.02
2023-04-24T14:02:52.091Z,99499.84
2023-04-24T14:05:19.446Z,99500.33
2023-04-24T14:07:46.044Z,99501.31
2023-04-24T14:10:12.578Z,99495.13
2023-04-24T14:12:39.253Z,99497.75
2023-04-24T14:15:06.410Z,99495.43
2023-04-24T14:17:32.989Z,99495.83
2023-04-24T14:20:01.540Z,99491.96
2023-04-24T14:22:28.376Z,99489.98
2023-04-24T14:24:55.051Z,99485.27
2023-04-24T14:27:21.615Z,99481.68
2023-04-24T14:29:48.148Z,99476.05
2023-04-24T14:32:16.244Z,99472.98
2023-04-24T14:34:43.146Z,99467.98
2023-04-24T14:37:09.683Z,99467.48
2023-04-24T14:39:36.400Z,99464.30
2023-04-24T14:42:03.036Z,99463.08
2023-04-24T14:44:29.588Z,99465.09
2023-04-24T14:46:56.321Z,99466.42
2023-04-24T14:49:24.076Z,99465.16
2023-04-24T14:51:50.679Z,99465.83
2023-04-24T14:54:17.285Z,99463.60
2023-04-24T14:56:45.477Z,99460.25
2023-04-24T14:59:12.071Z,99455.23
2023-04-24T15:01:38.690Z,99453.69
2023-04-24T15:04:06.079Z,99449.92
2023-04-24T15:06:33.881Z,99447.13
2023-04-24T15:09:00.877Z,99447.87
2023-04-24T15:11:27.484Z,99446.52
2023-04-24T15:13:54.121Z,99441.99
2023-04-24T15:16:21.625Z,99440.23
2023-04-24T15:18:48.400Z,99439.65
2023-04-24T15:21:15.472Z,99440.77
2023-04-24T15:23:42.029Z,99436.77
2023-04-24T15:26:08.582Z,99436.05
2023-04-24T15:28:35.774Z,99433.09
2023-04-24T15:31:02.321Z,99429.31
2023-04-24T15:33:28.870Z,99425.48
2023-04-24T15:35:55.622Z,99423.44
2023-04-24T15:38:22.180Z,99419.28
2023-04-24T15:40:49.449Z,99417.76
2023-04-24T15:43:17.145Z,99414.86
2023-04-24T15:45:44.216Z,99412.94
2023-04-24T15:48:10.922Z,99408.86
2023-04-24T15:50:37.834Z,99411.33
2023-04-24T15:53:04.579Z,99400.23
2023-04-24T15:55:31.149Z,99398.48
2023-04-24T15:57:57.702Z,99396.52
2023-04-24T16:00:24.296Z,99396.70
2023-04-24T16:02:51.727Z,99393.97
2023-04-24T16:05:20.006Z,99394.26
2023-04-24T16:07:46.897Z,99388.78
2023-04-24T16:10:13.615Z,99389.22
2023-04-24T16:12:40.904Z,99390.71
2023-04-24T16:15:07.616Z,99386.62
2023-04-24T16:17:34.409Z,99378.80
2023-04-24T16:20:01.611Z,99376.25
2023-04-24T16:22:28.561Z,99375.67
2023-04-24T16:24:55.333Z,99372.04
2023-04-24T16:27:21.869Z,99373.11
2023-04-24T16:29:48.468Z,99367.39
2023-04-24T16:32:15.075Z,99366.39
2023-04-24T16:34:41.644Z,99364.97
2023-04-24T16:37:08.186Z,99366.37
2023-04-24T16:39:34.978Z,99370.79
2023-04-24T16:42:01.951Z,99368.33
2023-04-24T16:44:28.662Z,99367.69
2023-04-24T16:46:55.338Z,99370.40
2023-04-24T16:49:23.755Z,99369.30
2023-04-24T16:51:50.924Z,99372.77
2023-04-24T16:54:17.638Z,99374.80
2023-04-24T16:56:44.188Z,99376.52
2023-04-24T16:59:10.770Z,99377.95
2023-04-24T17:01:37.310Z,99377.30
2023-04-24T17:04:04.095Z,99376.14
2023-04-24T17:06:31.927Z,99375.14
2023-04-24T17:09:00.459Z,99373.89
2023-04-24T17:11:28.433Z,99376.25
2023-04-24T17:13:56.974Z,99378.16
2023-04-24T17:16:23.619Z,99377.58
2023-04-24T17:18:50.923Z,99379.59
2023-04-24T17:21:17.744Z,99385.48
2023-04-24T17:23:44.512Z,99384.98
2023-04-24T17:26:11.652Z,99388.59
2023-04-24T17:28:38.194Z,99386.54
2023-04-24T17:31:04.891Z,99385.44
2023-04-24T17:33:31.498Z,99390.14
2023-04-24T17:35:58.421Z,99389.52
2023-04-24T17:38:25.034Z,99393.05
2023-04-24T17:40:53.060Z,99393.38
2023-04-24T17:43:20.428Z,99392.41
2023-04-24T17:45:47.335Z,99388.98
2023-04-24T17:48:14.247Z,99389.39
2023-04-24T17:50:40.991Z,99387.33
2023-04-24T17:53:07.668Z,99393.20
2023-04-24T17:55:37.300Z,99394.39
2023-04-24T17:58:04.227Z,99393.20
2023-04-24T18:00:31.206Z,99397.56
2023-04-24T18:03:01.279Z,99398.88
2023-04-24T18:05:28.818Z,99399.73
2023-04-24T18:07:55.526Z,99403.36
2023-04-24T18:10:23.087Z,99405.45
2023-04-24T18:12:49.730Z,99409.58
2023-04-24T18:15:17.087Z,99408.42
2023-04-24T18:17:43.780Z,99410.88
2023-04-24T18:20:11.501Z,99413.23
2023-04-24T18:22:38.070Z,99411.21
2023-04-24T18:25:04.990Z,99410.98
2023-04-24T18:27:31.895Z,99412.55
2023-04-24T18:29:58.749Z,99414.73
2023-04-24T18:32:25.581Z,99415.75
2023-04-24T18:34:52.369Z,99416.40
2023-04-24T18:37:18.960Z,99414.71
2023-04-24T18:39:45.624Z,99418.14
2023-04-24T18:42:12.183Z,99423.78
2023-04-24T18:44:41.075Z,99425.69
2023-04-24T18:47:08.269Z,99427.38
2023-04-24T18:49:34.884Z,99429.02
2023-04-24T18:52:01.983Z,99430.85
2023-04-24T18:54:28.727Z,99429.62
2023-04-24T18:56:55.392Z,99428.61
2023-04-24T18:59:22.133Z,99428.09
2023-04-24T19:01:48.781Z,99427.73
2023-04-24T19:04:16.047Z,99427.90
2023-04-24T19:06:42.660Z,99422.21
2023-04-24T19:09:09.197Z,99420.42
2023-04-24T19:11:35.942Z,99419.91
2023-04-24T19:14:05.792Z,99418.30
2023-04-24T19:16:32.412Z,99416.07
2023-04-24T19:18:59.028Z,99417.84
2023-04-24T19:21:26.233Z,99415.19
2023-04-24T19:23:52.982Z,99412.88
2023-04-24T19:26:19.685Z,99412.41
2023-04-24T19:28:46.621Z,99412.05
2023-04-24T19:31:13.408Z,99410.20
2023-04-24T19:33:39.948Z,99408.46
2023-04-24T19:36:06.679Z,99407.45
2023-04-24T19:38:33.214Z,99405.46
2023-04-24T19:40:59.767Z,99406.38
2023-04-24T19:43:26.462Z,99409.24
2023-04-24T19:45:53.097Z,99408.67
2023-04-24T19:48:19.857Z,99406.91
2023-04-24T19:50:46.670Z,99406.02
2023-04-24T19:53:13.386Z,99406.13
2023-04-24T19:55:40.171Z,99405.34
2023-04-24T19:58:06.913Z,99407.35
2023-04-24T20:00:35.097Z,99407.16
2023-04-24T20:03:03.060Z,99405.03
2023-04-24T20:05:29.893Z,99408.01
2023-04-24T20:07:56.557Z,99408.98
2023-04-24T20:10:23.160Z,99406.76
2023-04-24T20:12:50.314Z,99408.13
2023-04-24T20:15:16.948Z,99407.56
2023-04-24T20:17:43.487Z,99405.93
2023-04-24T20:20:10.662Z,99400.17
2023-04-24T20:22:40.753Z,99400.65
2023-04-24T20:25:07.983Z,99400.16
2023-04-24T20:27:34.869Z,99395.95
2023-04-24T20:30:01.463Z,99393.80
2023-04-24T20:32:28.018Z,99390.80
2023-04-24T20:34:54.617Z,99390.34
2023-04-24T20:37:21.341Z,99387.03
2023-04-24T20:39:49.707Z,99388.81
2023-04-24T20:42:16.779Z,99388.30
2023-04-24T20:44:45.560Z,99386.90
2023-04-24T20:47:12.165Z,99386.17
2023-04-24T20:49:38.800Z,99385.73
2023-04-24T20:52:06.419Z,99387.92
2023-04-24T20:54:33.018Z,99385.67
2023-04-24T20:56:59.854Z,99384.66
2023-04-24T20:59:26.823Z,99387.21
2023-04-24T21:01:53.407Z,99387.59
2023-04-24T21:04:20.048Z,99387.52
2023-04-24T21:06:47.841Z,99386.22
2023-04-24T21:09:14.410Z,99385.45
2023-04-24T21:14:08.230Z,99385.64
2023-04-24T21:16:34.822Z,99380.44
2023-04-24T21:19:01.487Z,99384.14
2023-04-24T21:21:28.054Z,99390.32
2023-04-24T21:23:54.769Z,99385.80
2023-04-24T21:26:21.499Z,99385.12
2023-04-24T21:28:48.125Z,99386.41
2023-04-24T21:31:14.688Z,99384.27
2023-04-24T21:33:41.472Z,99383.47
2023-04-24T21:36:08.146Z,99385.21
2023-04-24T21:38:34.687Z,99384.34
2023-04-24T21:41:01.309Z,99384.60
2023-04-24T21:43:37.214Z,99385.03
2023-04-24T21:46:08.076Z,99382.87
2023-04-24T21:48:34.849Z,99379.30
2023-04-24T21:51:01.407Z,99376.34
2023-04-24T21:53:29.566Z,99380.02
2023-04-24T21:55:56.094Z,99371.66
2023-04-24T21:58:22.704Z,99371.00
2023-04-24T22:00:49.254Z,99368.42
2023-04-24T22:03:17.016Z,99366.74
2023-04-24T22:05:43.719Z,99369.70
2023-04-24T22:08:10.523Z,99370.68
2023-04-24T22:10:38.022Z,99367.65
2023-04-24T22:13:04.621Z,99369.92
2023-04-24T22:15:31.711Z,99366.99
2023-04-24T22:17:58.941Z,99367.02
2023-04-24T22:20:26.052Z,99366.38
2023-04-24T22:22:52.749Z,99369.71
2023-04-24T22:25:19.691Z,99362.92
2023-04-24T22:27:46.278Z,99365.74
2023-04-24T22:30:13.028Z,99361.33
2023-04-24T22:32:39.644Z,99359.67
2023-04-24T22:35:06.641Z,99360.30
2023-04-24T22:37:33.401Z,99355.55
2023-04-24T22:40:01.267Z,99351.73
2023-04-24T22:42:28.843Z,99347.77
2023-04-24T22:44:55.709Z,99347.92
2023-04-24T22:47:22.383Z,99345.17
2023-04-24T22:49:49.157Z,99343.46
2023-04-24T22:52:17.208Z,99339.63
2023-04-24T22:54:43.824Z,99338.89
2023-04-24T22:57:12.474Z,99337.02
2023-04-24T22:59:39.251Z,99330.23
2023-04-24T23:02:05.867Z,99332.25
2023-04-24T23:04:32.662Z,99333.02
2023-04-24T23:06:59.463Z,99331.30
2023-04-24T23:09:26.015Z,99329.71
2023-04-24T23:11:52.928Z,99328.50
2023-04-24T23:14:19.473Z,99325.40
2023-04-24T23:16:46.611Z,99322.20
2023-04-24T23:19:13.353Z,99318.64
2023-04-24T23:21:39.938Z,99316.12
2023-04-24T23:24:06.537Z,99317.23
2023-04-24T23:26:33.167Z,99319.29
2023-04-24T23:29:00.175Z,99319.52
2023-04-24T23:31:26.819Z,99315.71
2023-04-24T23:33:53.658Z,99315.31
2023-04-24T23:36:20.199Z,99310.98
2023-04-24T23:38:50.178Z,99311.18
2023-04-24T23:41:17.681Z,99308.36
2023-04-24T23:43:44.232Z,99305.11
2023-04-24T23:46:10.903Z,99304.08
2023-04-24T23:48:37.632Z,99303.64
2023-04-24T23:51:04.468Z,99305.31
2023-04-24T23:53:31.011Z,99300.19
2023-04-24T23:55:57.558Z,99302.58
2023-04-24T23:58:24.146Z,99300.73
